Time;durP1;ratioP1;P1;durP2;ratioP2;P2;SDS_P1;SDS_P2;PMS_P1;PMS_P2;Temp;Humidity;BMP_temperature;BMP_pressure;BME280_temperature;BME280_humidity;BME280_pressure;Samples;Min_cycle;Max_cycle;Signal;HPM_P1;HPM_P2
2022/09/15 00:00:39;;;;;;;4.65;1.83;;;;;;;19.23;81.09;99504.16;4179784;28;20041;-61
2022/09/15 00:02:42;;;;;;;6.50;2.00;;;;;;;19.26;80.53;99510.19;4183365;28;20045;-61
2022/09/15 00:04:45;;;;;;;6.13;2.10;;;;;;;19.22;81.42;99511.22;4180904;28;20037;-62
2022/09/15 00:06:48;;;;;;;1.80;1.40;;;;;;;19.18;81.56;99509.59;4181588;28;20398;-61
2022/09/15 00:08:53;;;;;;;4.40;2.22;;;;;;;19.21;81.40;99513.91;4181174;28;20041;-62
2022/09/15 00:11:02;;;;;;;6.85;2.38;;;;;;;19.16;81.99;99511.44;4168380;28;20065;-62
2022/09/15 00:13:05;;;;;;;6.80;2.40;;;;;;;19.10;81.91;99509.88;4179856;28;20052;-62
2022/09/15 00:15:08;;;;;;;4.30;2.17;;;;;;;19.06;82.29;99521.44;4176400;28;20030;-62
2022/09/15 00:17:11;;;;;;;4.43;2.27;;;;;;;19.05;82.45;99517.06;4169251;28;20131;-61
2022/09/15 00:19:14;;;;;;;6.60;2.30;;;;;;;19.05;82.68;99519.72;4197195;28;20028;-61
2022/09/15 00:21:19;;;;;;;9.52;2.65;;;;;;;18.93;83.12;99514.91;4175650;28;20045;-61
2022/09/15 00:23:22;;;;;;;8.68;2.20;;;;;;;18.87;83.62;99515.97;4182077;28;20044;-62
2022/09/15 00:25:26;;;;;;;4.03;2.35;;;;;;;18.89;83.61;99508.00;4181680;28;20059;-61
2022/09/15 00:27:29;;;;;;;3.72;2.00;;;;;;;18.88;84.12;99503.66;4169635;28;20090;-61
2022/09/15 00:29:32;;;;;;;6.53;2.53;;;;;;;18.84;84.46;99510.78;4174840;28;20044;-61
2022/09/15 00:31:34;;;;;;;5.68;2.80;;;;;;;18.91;83.84;99503.53;4180963;28;20052;-61
2022/09/15 00:33:37;;;;;;;6.22;2.50;;;;;;;18.93;83.79;99496.47;4180757;28;20046;-61
2022/09/15 00:35:43;;;;;;;6.45;2.63;;;;;;;18.93;83.72;99491.19;4178310;28;20525;-61
2022/09/15 00:37:45;;;;;;;4.28;2.17;;;;;;;18.83;84.38;99498.53;4165941;28;20037;-61
2022/09/15 00:39:49;;;;;;;4.95;2.22;;;;;;;18.78;84.56;99493.41;4181489;28;20041;-61
2022/09/15 00:41:53;;;;;;;5.70;2.60;;;;;;;18.84;84.03;99493.19;4164713;28;20033;-61
2022/09/15 00:43:58;;;;;;;4.65;2.30;;;;;;;18.92;83.63;99492.94;4179828;28;20147;-61
2022/09/15 00:46:01;;;;;;;5.18;2.63;;;;;;;18.96;83.67;99485.81;4168168;28;20045;-61
2022/09/15 00:48:06;;;;;;;3.75;2.00;;;;;;;19.01;83.08;99482.09;4172774;28;20134;-61
2022/09/15 00:50:12;;;;;;;5.43;2.33;;;;;;;18.97;83.37;99485.75;4181718;28;20036;-62
2022/09/15 00:52:20;;;;;;;4.80;1.90;;;;;;;18.93;83.97;99493.81;4176625;28;20075;-62
2022/09/15 00:54:28;;;;;;;5.43;2.58;;;;;;;18.84;83.92;99481.81;4180596;28;20229;-61
2022/09/15 00:56:33;;;;;;;5.32;2.25;;;;;;;18.87;83.91;99481.72;4165888;28;20431;-61
2022/09/15 00:58:57;;;;;;;5.03;2.33;;;;;;;18.86;84.08;99484.41;4176769;28;20055;-62
2022/09/15 01:01:02;;;;;;;3.20;1.92;;;;;;;18.92;84.04;99486.84;4168439;28;20048;-62
2022/09/15 01:03:05;;;;;;;4.97;1.98;;;;;;;18.86;84.43;99489.66;4174407;28;20581;-62
2022/09/15 01:05:10;;;;;;;5.60;2.28;;;;;;;18.84;83.93;99482.66;4181909;28;20041;-62
2022/09/15 01:07:18;;;;;;;3.95;2.40;;;;;;;18.84;84.27;99489.72;4176934;28;20045;-61
2022/09/15 01:09:28;;;;;;;7.35;2.40;;;;;;;18.78;84.25;99495.22;4157563;28;20088;-62
2022/09/15 01:11:31;;;;;;;4.18;2.33;;;;;;;18.84;83.95;99487.94;4178901;28;20406;-62
2022/09/15 01:13:34;;;;;;;5.43;2.67;;;;;;;18.89;84.00;99481.69;4181514;28;20550;-62
2022/09/15 01:15:48;;;;;;;5.93;2.60;;;;;;;18.98;83.25;99479.59;4174592;28;20268;-62
2022/09/15 01:18:05;;;;;;;5.30;2.67;;;;;;;18.94;83.26;99480.59;4173795;28;20041;-62
2022/09/15 01:20:33;;;;;;;7.35;2.08;;;;;;;18.86;83.81;99487.03;4177771;28;20107;-62
2022/09/15 01:22:41;;;;;;;;;;;;;;;18.67;84.40;99485.03;4166018;28;20124;-62
2022/09/15 01:24:58;;;;;;;6.50;1.98;;;;;;;18.74;84.36;99489.16;4171815;28;20374;-62
2022/09/15 01:27:09;;;;;;;6.53;1.80;;;;;;;18.76;84.23;99487.38;4168191;28;20037;-62
2022/09/15 01:29:56;;;;;;;3.92;2.22;;;;;;;18.76;84.17;99486.47;4167871;28;20128;-62
2022/09/15 01:34:33;;;;;;;7.80;2.13;;;;;;;18.80;83.97;99481.06;4168456;28;20083;-62
2022/09/15 01:36:42;;;;;;;2.45;1.73;;;;;;;18.82;83.69;99479.25;4178896;28;20033;-62
2022/09/15 01:38:54;;;;;;;6.35;2.25;;;;;;;18.88;83.86;99479.94;4180816;28;20150;-62
2022/09/15 01:41:01;;;;;;;5.40;2.05;;;;;;;18.94;83.52;99485.00;4163926;28;20049;-62
2022/09/15 01:43:06;;;;;;;3.00;1.95;;;;;;;18.93;83.57;99483.28;4174637;28;20041;-62
2022/09/15 01:45:12;;;;;;;;;;;;;;;18.80;83.68;99475.78;4171090;28;20056;-62
2022/09/15 01:47:19;;;;;;;6.20;2.33;;;;;;;18.90;83.70;99478.13;4180912;28;20378;-62
2022/09/15 01:49:25;;;;;;;5.65;2.42;;;;;;;18.90;83.45;99481.63;4177218;28;20045;-62
2022/09/15 01:51:31;;;;;;;6.45;2.25;;;;;;;18.92;83.25;99478.94;4166114;28;20041;-62
2022/09/15 01:53:34;;;;;;;1.88;1.60;;;;;;;18.90;83.28;99486.88;4175727;28;20069;-62
2022/09/15 01:55:42;;;;;;;2.85;1.65;;;;;;;18.87;83.26;99487.00;4179448;28;20040;-63
2022/09/15 01:57:45;;;;;;;6.55;1.85;;;;;;;18.91;82.99;99485.09;4181169;28;20032;-62
2022/09/15 01:59:49;;;;;;;4.70;1.83;;;;;;;18.93;83.13;99475.41;4181383;28;20048;-62
2022/09/15 02:01:59;;;;;;;4.15;1.98;;;;;;;18.91;83.02;99469.31;4180126;28;20041;-62
2022/09/15 02:04:07;;;;;;;4.97;1.60;;;;;;;18.93;82.83;99472.75;4179802;28;20049;-62
2022/09/15 02:06:16;;;;;;;4.13;2.00;;;;;;;18.94;82.64;99466.56;4158152;28;20044;-62
2022/09/15 02:08:27;;;;;;;2.65;1.52;;;;;;;18.90;83.29;99471.09;4177124;28;20726;-62
2022/09/15 02:10:35;;;;;;;4.43;2.00;;;;;;;18.92;82.57;99471.03;4181142;28;20037;-62
2022/09/15 02:12:46;;;;;;;2.58;1.52;;;;;;;18.87;82.49;99460.66;4181292;28;20473;-62
2022/09/15 02:14:57;;;;;;;2.88;1.40;;;;;;;18.79;82.84;99460.91;4172568;28;20067;-62
2022/09/15 02:17:02;;;;;;;3.10;1.45;;;;;;;18.67;83.30;99466.59;4181013;28;20052;-62
2022/09/15 02:19:17;;;;;;;3.78;1.75;;;;;;;18.65;84.02;99457.91;4163266;28;20052;-62
2022/09/15 02:21:26;;;;;;;3.72;1.50;;;;;;;18.64;84.18;99464.09;4179824;28;20045;-62
2022/09/15 02:23:35;;;;;;;3.55;1.60;;;;;;;18.70;84.04;99466.50;4178117;28;20124;-62
2022/09/15 02:25:42;;;;;;;5.15;1.73;;;;;;;18.74;83.51;99462.84;4179061;28;20060;-62
2022/09/15 02:27:49;;;;;;;2.35;1.70;;;;;;;18.79;83.50;99462.66;4170780;28;20056;-63
2022/09/15 02:29:56;;;;;;;1.83;1.40;;;;;;;18.79;83.37;99460.91;4168929;28;20076;-62
2022/09/15 02:32:03;;;;;;;3.60;1.40;;;;;;;18.79;83.61;99466.19;4164233;28;20111;-62
2022/09/15 02:34:13;;;;;;;4.28;1.83;;;;;;;18.82;83.19;99468.72;4174372;28;20052;-62
2022/09/15 02:36:19;;;;;;;4.07;2.08;;;;;;;18.83;83.52;99466.91;4180008;28;20138;-62
2022/09/15 02:38:22;;;;;;;7.60;2.10;;;;;;;18.77;83.28;99462.72;4176276;28;20090;-62
2022/09/15 02:40:27;;;;;;;5.07;2.00;;;;;;;18.84;83.01;99464.22;4177985;28;20033;-62
2022/09/15 02:42:32;;;;;;;4.03;1.65;;;;;;;18.86;83.12;99465.97;4195331;28;20082;-62
2022/09/15 02:44:34;;;;;;;;;;;;;;;18.73;83.44;99470.78;4180800;28;20068;-62
2022/09/15 02:46:38;;;;;;;2.88;1.33;;;;;;;18.72;83.61;99469.06;4165541;28;19956;-62
2022/09/15 02:48:42;;;;;;;2.63;1.40;;;;;;;18.76;83.49;99466.31;4169744;28;20029;-62
2022/09/15 02:50:44;;;;;;;4.43;1.60;;;;;;;18.77;83.18;99461.88;4175649;28;20037;-62
2022/09/15 02:52:47;;;;;;;1.95;1.55;;;;;;;18.77;82.93;99457.47;4179773;28;20037;-62
2022/09/15 02:54:50;;;;;;;2.72;1.73;;;;;;;18.79;82.39;99457.41;4161023;28;20100;-62
2022/09/15 02:56:53;;;;;;;3.65;1.80;;;;;;;18.74;83.08;99468.09;4173692;28;20568;-62
2022/09/15 02:58:56;;;;;;;4.60;1.83;;;;;;;18.69;82.87;99459.53;4169420;28;20503;-62
2022/09/15 03:01:00;;;;;;;2.50;1.65;;;;;;;18.74;82.89;99456.72;4178147;28;20041;-62
2022/09/15 03:03:03;;;;;;;4.38;1.83;;;;;;;18.77;82.96;99459.25;4178166;28;20049;-62
2022/09/15 03:05:09;;;;;;;6.18;1.73;;;;;;;18.74;82.95;99467.25;4182305;28;20492;-62
2022/09/15 03:07:12;;;;;;;2.72;1.70;;;;;;;18.70;83.34;99471.75;4163968;28;20466;-62
2022/09/15 03:09:15;;;;;;;4.72;1.88;;;;;;;18.72;82.89;99467.31;4176487;28;20506;-62
2022/09/15 03:11:19;;;;;;;2.50;1.70;;;;;;;18.66;83.15;99476.28;4163947;28;20029;-62
2022/09/15 03:13:22;;;;;;;3.75;1.90;;;;;;;18.72;82.52;99480.47;4175080;28;20033;-63
2022/09/15 03:15:26;;;;;;;6.15;1.50;;;;;;;18.71;82.70;99478.75;4178454;28;20063;-63
2022/09/15 03:17:29;;;;;;;6.63;1.80;;;;;;;18.64;83.39;99471.97;4178871;28;20514;-63
2022/09/15 03:19:31;;;;;;;4.30;1.90;;;;;;;18.62;83.49;99468.56;4174577;28;20060;-63
2022/09/15 03:21:36;;;;;;;4.38;1.77;;;;;;;18.63;83.01;99471.13;4171885;28;20029;-62
2022/09/15 03:23:40;;;;;;;1.90;1.70;;;;;;;18.67;83.34;99475.38;4154126;28;20136;-62
2022/09/15 03:25:45;;;;;;;2.78;1.70;;;;;;;18.65;83.49;99477.19;4166910;28;20042;-62
2022/09/15 03:27:48;;;;;;;5.20;2.17;;;;;;;18.64;83.32;99475.47;4164095;28;20451;-62
2022/09/15 03:29:51;;;;;;;3.55;1.67;;;;;;;18.59;83.73;99474.78;4169438;28;20410;-62
2022/09/15 03:31:54;;;;;;;4.45;2.30;;;;;;;18.55;83.65;99474.94;4175129;28;20556;-62
2022/09/15 03:33:57;;;;;;;5.63;2.40;;;;;;;18.50;84.24;99475.09;4166541;28;20080;-62
2022/09/15 03:36:00;;;;;;;4.30;2.28;;;;;;;18.47;83.97;99476.06;4164887;28;20045;-62
2022/09/15 03:38:04;;;;;;;4.57;1.95;;;;;;;18.45;84.64;99469.97;4162783;28;20046;-62
2022/09/15 03:40:09;;;;;;;6.30;1.92;;;;;;;18.50;84.42;99480.38;4173080;28;20506;-62
2022/09/15 03:42:12;;;;;;;7.43;2.72;;;;;;;18.50;84.49;99483.00;4179533;28;20045;-62
2022/09/15 03:44:15;;;;;;;5.05;2.50;;;;;;;18.50;84.74;99480.38;4179422;28;20045;-62
2022/09/15 03:46:19;;;;;;;10.68;3.42;;;;;;;18.50;84.91;99475.09;4177268;28;20033;-62
2022/09/15 03:48:22;;;;;;;8.30;2.95;;;;;;;18.55;84.39;99482.84;4178885;28;20120;-62
2022/09/15 03:50:25;;;;;;;4.70;2.90;;;;;;;18.56;84.74;99477.53;4177780;28;20486;-62
2022/09/15 03:52:31;;;;;;;6.53;3.00;;;;;;;18.59;84.27;99473.94;4177494;28;20087;-62
2022/09/15 03:54:35;;;;;;;5.85;3.65;;;;;;;18.54;84.63;99473.22;4174389;28;20124;-62
2022/09/15 03:56:38;;;;;;;7.65;3.53;;;;;;;18.52;84.50;99478.53;4168574;28;20470;-63
2022/09/15 03:58:41;;;;;;;11.77;5.85;;;;;;;18.49;84.95;99479.50;4175848;28;20056;-62
2022/09/15 04:00:44;;;;;;;13.32;6.43;;;;;;;18.48;84.83;99476.91;4180639;28;20206;-62
2022/09/15 04:02:47;;;;;;;15.77;7.65;;;;;;;18.45;84.66;99477.88;4183114;28;20033;-62
2022/09/15 04:04:50;;;;;;;16.65;7.72;;;;;;;18.44;85.06;99477.94;4182927;28;20044;-62
2022/09/15 04:06:53;;;;;;;15.02;7.18;;;;;;;18.44;84.92;99483.19;4183086;28;20083;-62
2022/09/15 04:08:56;;;;;;;12.52;6.00;;;;;;;18.44;84.63;99481.44;4178076;28;20092;-62
2022/09/15 04:11:04;;;;;;;17.23;6.13;;;;;;;18.48;84.76;99477.75;4181840;28;20130;-63
2022/09/15 04:13:07;;;;;;;10.25;6.68;;;;;;;18.48;84.34;99488.28;4181508;28;20041;-62
2022/09/15 04:15:10;;;;;;;8.70;4.95;;;;;;;18.45;85.02;99496.28;4182988;28;20534;-62
2022/09/15 04:17:14;;;;;;;7.53;4.43;;;;;;;18.66;83.90;99502.63;4181077;28;20548;-62
2022/09/15 04:19:17;;;;;;;5.45;4.10;;;;;;;18.58;83.88;99506.41;4178801;28;20083;-62
2022/09/15 04:21:21;;;;;;;3.55;2.85;;;;;;;18.44;84.07;99513.00;4176407;28;20049;-62
2022/09/15 04:23:24;;;;;;;3.45;2.47;;;;;;;18.37;83.90;99514.13;4180914;28;20041;-62
2022/09/15 04:25:28;;;;;;;2.53;1.92;;;;;;;18.62;81.94;99511.53;4177035;28;20406;-62
2022/09/15 04:27:34;;;;;;;2.30;1.73;;;;;;;18.42;82.76;99514.81;4172846;28;20064;-62
2022/09/15 04:29:37;;;;;;;1.63;1.52;;;;;;;18.59;81.59;99508.16;4173186;28;20049;-62
2022/09/15 04:31:40;;;;;;;3.15;1.67;;;;;;;18.55;81.52;99515.28;4177573;28;20037;-62
2022/09/15 04:33:43;;;;;;;1.65;1.30;;;;;;;18.47;81.86;99519.94;4181141;28;20079;-62
2022/09/15 04:35:47;;;;;;;4.27;1.90;;;;;;;18.51;82.07;99524.19;4171611;28;20041;-62
2022/09/15 04:37:50;;;;;;;3.08;1.80;;;;;;;18.55;81.65;99527.59;4177459;28;20291;-62
2022/09/15 04:39:53;;;;;;;3.33;1.70;;;;;;;18.54;81.93;99517.97;4181408;28;20144;-62
2022/09/15 04:41:56;;;;;;;6.32;2.42;;;;;;;18.57;82.19;99525.75;4176316;28;20511;-62
2022/09/15 04:44:01;;;;;;;3.22;2.17;;;;;;;18.64;81.44;99527.25;4175715;28;20051;-62
2022/09/15 04:46:04;;;;;;;3.80;2.80;;;;;;;18.66;81.52;99528.94;4174796;28;20482;-62
2022/09/15 04:48:06;;;;;;;2.85;2.00;;;;;;;18.71;80.66;99527.94;4178827;28;20029;-62
2022/09/15 04:50:10;;;;;;;2.35;1.75;;;;;;;18.70;80.41;99531.47;4173519;28;20037;-62
2022/09/15 04:52:12;;;;;;;4.20;1.98;;;;;;;18.64;81.00;99524.63;4180600;28;20383;-63
2022/09/15 04:54:15;;;;;;;4.10;2.45;;;;;;;18.61;81.49;99530.00;4172439;28;20033;-62
2022/09/15 04:56:20;;;;;;;4.28;2.10;;;;;;;18.69;80.82;99522.72;4180039;28;20568;-63
2022/09/15 04:58:22;;;;;;;;;;;;;;;18.48;81.41;99526.91;4182678;28;20033;-63
2022/09/15 05:00:26;;;;;;;1.70;1.45;;;;;;;18.46;82.04;99526.13;4181748;28;19968;-62
2022/09/15 05:02:29;;;;;;;3.20;2.42;;;;;;;18.52;81.58;99520.66;4179497;28;20481;-62
2022/09/15 05:04:33;;;;;;;2.88;2.53;;;;;;;18.57;81.08;99526.59;4172306;28;20089;-62
2022/09/15 05:06:37;;;;;;;2.45;2.25;;;;;;;18.64;80.26;99525.47;4177572;28;20036;-62
2022/09/15 05:08:40;;;;;;;3.58;2.50;;;;;;;18.60;80.17;99528.28;4174337;28;20446;-63
2022/09/15 05:10:44;;;;;;;4.18;1.98;;;;;;;18.48;81.14;99538.28;4170433;28;20601;-62
2022/09/15 05:12:46;;;;;;;3.67;2.55;;;;;;;18.51;80.87;99539.13;4178054;28;20045;-63
2022/09/15 05:14:49;;;;;;;3.17;2.47;;;;;;;18.53;80.33;99548.69;4178791;28;20079;-62
2022/09/15 05:16:53;;;;;;;4.72;2.50;;;;;;;18.42;81.38;99545.56;4171973;28;20049;-62
2022/09/15 05:18:58;;;;;;;3.38;2.13;;;;;;;18.51;80.22;99545.22;4160466;28;20163;-63
2022/09/15 05:21:02;;;;;;;4.72;3.00;;;;;;;18.46;80.51;99545.41;4170780;28;20037;-63
2022/09/15 05:23:05;;;;;;;6.03;3.00;;;;;;;18.36;80.33;99551.88;4172711;28;20457;-62
2022/09/15 05:25:09;;;;;;;3.95;2.65;;;;;;;18.33;80.70;99551.13;4181728;28;20083;-65
2022/09/15 05:27:11;;;;;;;4.85;3.67;;;;;;;18.41;80.32;99549.97;4174623;28;20055;-63
2022/09/15 05:29:14;;;;;;;4.82;3.60;;;;;;;18.33;79.95;99554.59;4180857;28;20041;-63
2022/09/15 05:31:18;;;;;;;5.53;3.45;;;;;;;18.25;78.96;99562.75;4180275;28;20071;-63
2022/09/15 05:33:23;;;;;;;4.68;3.40;;;;;;;18.20;79.10;99561.19;4181507;28;20048;-62
2022/09/15 05:35:26;;;;;;;5.88;4.00;;;;;;;18.12;79.20;99570.16;4181544;28;20037;-64
2022/09/15 05:37:28;;;;;;;6.13;4.55;;;;;;;18.23;78.90;99577.72;4180444;28;20036;-62
2022/09/15 05:39:31;;;;;;;10.02;5.30;;;;;;;18.11;79.00;99583.38;4179926;28;20041;-62
2022/09/15 05:41:34;;;;;;;10.15;5.90;;;;;;;17.94;79.95;99587.34;4180346;28;20434;-61
2022/09/15 05:43:39;;;;;;;8.10;5.72;;;;;;;17.89;79.82;99596.28;4171395;28;20045;-62
2022/09/15 05:45:42;;;;;;;11.25;6.05;;;;;;;17.67;80.99;99604.78;4176389;28;20482;-61
2022/09/15 05:47:44;;;;;;;9.82;6.25;;;;;;;17.66;81.31;99602.22;4179319;28;20059;-61
2022/09/15 05:49:49;;;;;;;10.32;6.63;;;;;;;17.69;81.34;99595.09;4174401;28;20037;-62
2022/09/15 05:51:51;;;;;;;7.88;5.82;;;;;;;17.62;81.67;99597.03;4179722;28;20087;-62
2022/09/15 05:53:54;;;;;;;10.43;6.30;;;;;;;17.59;81.93;99606.75;4171388;28;20069;-62
2022/09/15 05:55:58;;;;;;;11.88;6.38;;;;;;;17.56;81.80;99612.13;4169682;28;20049;-62
2022/09/15 05:58:01;;;;;;;9.52;6.53;;;;;;;17.54;81.27;99611.31;4172969;28;20522;-63
2022/09/15 06:00:05;;;;;;;11.80;6.50;;;;;;;17.53;80.81;99617.47;4173865;28;20438;-62
2022/09/15 06:02:14;;;;;;;9.93;6.85;;;;;;;17.39;81.15;99610.81;4169962;28;20053;-62
2022/09/15 06:04:16;;;;;;;11.82;10.13;;;;;;;17.43;80.02;99617.72;4176465;28;20135;-63
2022/09/15 06:06:22;;;;;;;14.80;9.57;;;;;;;17.41;79.35;99618.66;4175380;28;20041;-63
2022/09/15 06:08:24;;;;;;;14.18;11.20;;;;;;;17.23;80.13;99626.13;4179312;28;20033;-63
2022/09/15 06:10:27;;;;;;;13.90;11.15;;;;;;;17.10;80.04;99627.38;4179297;28;20037;-63
2022/09/15 06:12:30;;;;;;;13.43;10.20;;;;;;;17.07;81.02;99624.81;4157304;28;20124;-63
2022/09/15 06:14:33;;;;;;;14.82;12.02;;;;;;;17.11;80.19;99621.19;4176727;28;20457;-63
2022/09/15 06:16:36;;;;;;;20.65;15.60;;;;;;;17.26;78.84;99627.84;4177934;28;20041;-63
2022/09/15 06:18:40;;;;;;;19.15;14.77;;;;;;;17.14;79.74;99623.72;4159904;28;20057;-63
2022/09/15 06:20:43;;;;;;;22.48;16.15;;;;;;;17.04;80.07;99620.50;4175322;28;20406;-63
2022/09/15 06:22:47;;;;;;;20.13;16.60;;;;;;;17.00;80.32;99625.88;4174312;28;20480;-63
2022/09/15 06:24:51;;;;;;;21.80;15.15;;;;;;;16.99;80.44;99632.03;4169659;28;20069;-63
2022/09/15 06:26:53;;;;;;;23.48;18.15;;;;;;;17.16;79.47;99628.97;4170682;28;20640;-63
2022/09/15 06:28:58;;;;;;;22.63;17.58;;;;;;;17.15;79.44;99632.50;4170945;28;20059;-63
2022/09/15 06:31:01;;;;;;;;;;;;;;;17.15;78.92;99635.97;4168602;28;20073;-63
2022/09/15 06:33:15;;;;;;;23.95;18.17;;;;;;;17.12;79.13;99637.84;4181034;28;19929;-64
2022/09/15 06:35:18;;;;;;;22.70;19.70;;;;;;;17.19;77.93;99631.53;4158220;28;20042;-65
2022/09/15 06:37:21;;;;;;;22.20;17.77;;;;;;;17.13;78.08;99634.28;4173048;28;20131;-63
2022/09/15 06:39:25;;;;;;;24.05;18.05;;;;;;;17.04;78.36;99635.38;4176729;28;20041;-63
2022/09/15 06:41:29;;;;;;;20.73;15.88;;;;;;;17.01;78.95;99645.97;4171543;28;20043;-63
2022/09/15 06:43:52;;;;;;;21.88;16.95;;;;;;;16.98;78.42;99653.94;4173081;28;20399;-64
2022/09/15 06:46:02;;;;;;;21.23;17.27;;;;;;;16.85;79.54;99661.19;4172957;28;20098;-62
2022/09/15 06:48:05;;;;;;;21.42;16.42;;;;;;;16.99;78.98;99669.63;4173616;28;20037;-64
2022/09/15 06:50:29;;;;;;;24.95;19.15;;;;;;;16.81;80.02;99676.19;4168624;28;20049;-64
2022/09/15 06:52:32;;;;;;;21.70;16.48;;;;;;;16.84;80.02;99677.88;4174904;28;20494;-64
2022/09/15 06:54:37;;;;;;;21.90;15.20;;;;;;;16.84;80.50;99686.59;4174167;28;20126;-64
2022/09/15 06:56:40;;;;;;;19.30;14.00;;;;;;;16.77;81.45;99692.06;4176941;28;20051;-64
2022/09/15 06:58:44;;;;;;;18.45;13.00;;;;;;;16.98;80.00;99704.69;4173391;28;20498;-64
2022/09/15 07:00:47;;;;;;;17.55;13.13;;;;;;;16.91;79.19;99696.09;4174657;28;20123;-64
2022/09/15 07:02:50;;;;;;;17.73;11.40;;;;;;;16.83;78.87;99702.41;4172249;28;20033;-64
2022/09/15 07:04:53;;;;;;;14.95;10.35;;;;;;;16.85;78.05;99703.22;4176264;28;20040;-63
2022/09/15 07:06:56;;;;;;;14.30;10.57;;;;;;;16.66;79.01;99708.91;4177500;28;20482;-63
2022/09/15 07:09:00;;;;;;;14.45;9.18;;;;;;;16.68;78.42;99709.72;4176262;28;20556;-63
2022/09/15 07:11:07;;;;;;;14.73;8.88;;;;;;;16.65;78.38;99709.81;4177408;28;20083;-63
2022/09/15 07:13:10;;;;;;;16.10;8.65;;;;;;;16.62;78.05;99715.13;4175656;28;20045;-63
2022/09/15 07:15:13;;;;;;;12.90;6.38;;;;;;;16.65;76.37;99712.44;4172712;28;20033;-63
2022/09/15 07:17:16;;;;;;;11.02;5.60;;;;;;;16.48;76.43;99722.44;4172166;28;20071;-63
2022/09/15 07:19:18;;;;;;;11.18;6.03;;;;;;;16.44;76.52;99718.16;4176421;28;20033;-63
2022/09/15 07:21:21;;;;;;;10.75;5.32;;;;;;;16.41;76.27;99724.31;4173179;28;20044;-63
2022/09/15 07:23:24;;;;;;;12.00;5.82;;;;;;;16.40;76.19;99731.34;4177043;28;20037;-62
2022/09/15 07:25:27;;;;;;;11.48;6.38;;;;;;;16.32;76.68;99730.63;4172659;28;20406;-63
2022/09/15 07:27:31;;;;;;;11.27;5.70;;;;;;;16.31;76.46;99723.66;4176042;28;20041;-63
2022/09/15 07:29:34;;;;;;;11.27;6.18;;;;;;;16.22;77.31;99734.34;4178175;28;20165;-63
2022/09/15 07:31:39;;;;;;;15.75;8.07;;;;;;;16.26;78.72;99736.00;4175926;28;20037;-63
2022/09/15 07:33:42;;;;;;;12.32;5.68;;;;;;;16.39;77.77;99736.63;4176350;28;20406;-63
2022/09/15 07:35:45;;;;;;;15.32;7.30;;;;;;;16.43;77.90;99740.03;4175825;28;20040;-63
2022/09/15 07:37:48;;;;;;;10.35;5.78;;;;;;;16.48;77.27;99735.56;4181380;28;20041;-63
2022/09/15 07:39:51;;;;;;;10.25;5.60;;;;;;;16.49;77.45;99737.28;4180726;28;20041;-62
2022/09/15 07:41:54;;;;;;;8.68;5.18;;;;;;;16.56;78.51;99738.88;4174118;28;20037;-62
2022/09/15 07:44:00;;;;;;;10.50;5.35;;;;;;;16.65;76.72;99741.28;4179525;28;20041;-63
2022/09/15 07:46:03;;;;;;;10.40;5.70;;;;;;;16.69;76.97;99742.97;4182228;28;20481;-63
2022/09/15 07:48:06;;;;;;;10.93;5.47;;;;;;;16.74;77.21;99748.09;4183444;28;20037;-63
2022/09/15 07:50:09;;;;;;;11.57;6.18;;;;;;;16.78;77.55;99744.50;4178310;28;20089;-63
2022/09/15 07:52:12;;;;;;;14.43;6.88;;;;;;;16.89;77.58;99752.16;4176272;28;20044;-63
2022/09/15 07:54:15;;;;;;;10.85;5.85;;;;;;;16.93;76.76;99748.56;4177416;28;20049;-63
2022/09/15 07:56:24;;;;;;;12.40;6.75;;;;;;;16.95;76.10;99748.53;4171524;28;20045;-63
2022/09/15 07:58:27;;;;;;;11.85;6.22;;;;;;;16.96;75.48;99756.38;4166981;28;20041;-63
2022/09/15 08:00:31;;;;;;;11.07;6.40;;;;;;;16.87;76.48;99752.19;4166817;28;20040;-63
2022/09/15 08:02:34;;;;;;;11.68;7.22;;;;;;;16.93;76.60;99754.66;4161594;28;20124;-62
2022/09/15 08:04:37;;;;;;;13.23;7.13;;;;;;;16.83;76.63;99757.53;4182743;28;20029;-62
2022/09/15 08:06:40;;;;;;;13.32;7.00;;;;;;;16.85;76.75;99753.97;4165101;28;20053;-63
2022/09/15 08:08:43;;;;;;;13.90;7.90;;;;;;;16.91;76.70;99753.00;4182393;28;20045;-63
2022/09/15 08:10:46;;;;;;;11.97;7.53;;;;;;;16.88;76.38;99753.94;4181909;28;20493;-63
2022/09/15 08:12:49;;;;;;;16.13;8.18;;;;;;;16.91;76.40;99755.63;4180792;28;20083;-63
2022/09/15 08:14:52;;;;;;;15.52;10.02;;;;;;;16.95;76.75;99762.50;4187046;28;20470;-63
2022/09/15 08:16:59;;;;;;;16.88;9.88;;;;;;;16.95;76.93;99759.03;4177441;28;20041;-63
2022/09/15 08:19:02;;;;;;;12.55;8.40;;;;;;;17.04;76.21;99756.19;4178456;28;20056;-63
2022/09/15 08:21:06;;;;;;;13.50;9.40;;;;;;;17.03;76.75;99757.09;4182907;28;20427;-64
2022/09/15 08:23:10;;;;;;;18.40;11.80;;;;;;;17.09;76.20;99759.56;4182808;28;20091;-63
2022/09/15 08:25:12;;;;;;;14.55;9.63;;;;;;;17.00;76.44;99755.41;4182886;28;20068;-63
2022/09/15 08:27:15;;;;;;;14.60;9.48;;;;;;;16.95;76.55;99762.50;4181675;28;20510;-62
2022/09/15 08:29:18;;;;;;;9.90;7.63;;;;;;;16.91;77.35;99759.09;4178077;28;20075;-63
2022/09/15 08:31:23;;;;;;;17.10;9.45;;;;;;;17.01;77.55;99772.91;4182656;28;20064;-63
2022/09/15 08:33:28;;;;;;;15.25;9.77;;;;;;;17.08;76.84;99777.09;4182482;28;20095;-63
2022/09/15 08:35:33;;;;;;;14.63;9.32;;;;;;;17.12;76.00;99775.25;4181625;28;20498;-62
2022/09/15 08:37:36;;;;;;;11.65;7.97;;;;;;;17.13;74.47;99781.34;4180937;28;20049;-63
2022/09/15 08:39:38;;;;;;;13.43;7.25;;;;;;;17.09;75.33;99781.44;4180066;28;20045;-63
2022/09/15 08:41:43;;;;;;;11.80;8.10;;;;;;;17.00;76.11;99778.19;4196472;28;20078;-63
2022/09/15 08:43:53;;;;;;;11.20;6.60;;;;;;;17.00;76.65;99786.06;4164576;28;20034;-63
2022/09/15 08:46:03;;;;;;;12.90;8.15;;;;;;;17.13;76.14;99791.88;4165681;28;20099;-63
2022/09/15 08:48:07;;;;;;;11.15;7.70;;;;;;;17.20;75.74;99796.06;4166416;28;20115;-63
2022/09/15 08:50:20;;;;;;;14.02;7.95;;;;;;;17.30;73.39;99789.69;4181227;28;20037;-63
2022/09/15 08:52:28;;;;;;;14.23;7.43;;;;;;;17.23;73.91;99793.38;4183126;28;20394;-63
2022/09/15 08:54:33;;;;;;;11.23;7.18;;;;;;;17.26;74.26;99794.19;4182279;28;20037;-63
2022/09/15 08:56:36;;;;;;;11.93;6.40;;;;;;;17.27;72.32;99795.03;4181387;28;20040;-63
2022/09/15 08:58:39;;;;;;;15.23;7.05;;;;;;;17.19;72.92;99799.63;4163810;28;20053;-63
2022/09/15 09:00:45;;;;;;;12.15;6.10;;;;;;;17.15;73.57;99800.59;4182339;28;20091;-63
2022/09/15 09:03:05;;;;;;;13.30;6.15;;;;;;;17.23;72.81;99796.00;4182563;28;20064;-63
2022/09/15 09:05:33;;;;;;;11.98;6.38;;;;;;;17.16;72.99;99795.31;4182516;28;20103;-63
2022/09/15 09:07:58;;;;;;;11.85;6.35;;;;;;;17.17;73.72;99804.03;4181821;28;20044;-63
2022/09/15 09:10:12;;;;;;;8.38;6.13;;;;;;;17.20;73.50;99803.97;4175640;28;20037;-63
2022/09/15 09:12:39;;;;;;;13.15;7.18;;;;;;;17.28;73.18;99804.66;4182346;28;20041;-62
2022/09/15 09:14:56;;;;;;;11.25;6.97;;;;;;;17.36;72.18;99800.09;4181921;28;20041;-63
2022/09/15 09:17:15;;;;;;;13.20;6.13;;;;;;;17.35;72.89;99795.72;4164479;28;20422;-63
2022/09/15 09:19:37;;;;;;;12.45;6.95;;;;;;;17.37;73.17;99801.78;4162526;28;20088;-63
2022/09/15 09:21:47;;;;;;;11.52;5.85;;;;;;;17.50;72.16;99798.88;4164464;28;20431;-63
2022/09/15 09:23:55;;;;;;;12.15;5.68;;;;;;;17.55;71.55;99808.38;4182050;28;20075;-63
2022/09/15 09:26:00;;;;;;;12.85;6.07;;;;;;;17.56;72.08;99812.72;4177934;28;20159;-63
2022/09/15 09:28:06;;;;;;;12.13;4.93;;;;;;;17.54;72.16;99813.66;4178157;28;20518;-63
2022/09/15 09:30:16;;;;;;;7.88;4.90;;;;;;;17.68;70.39;99819.41;4181894;28;20064;-63
2022/09/15 09:32:23;;;;;;;9.55;4.07;;;;;;;17.53;71.04;99811.94;4182017;28;20072;-63
2022/09/15 09:34:31;;;;;;;8.20;4.28;;;;;;;17.47;70.67;99817.34;4180425;28;20037;-63
2022/09/15 09:36:34;;;;;;;7.38;3.63;;;;;;;17.46;70.55;99819.09;4197163;28;20032;-64
2022/09/15 09:38:40;;;;;;;5.65;3.25;;;;;;;17.49;69.69;99826.03;4178882;28;20144;-63
2022/09/15 09:40:43;;;;;;;7.50;4.05;;;;;;;17.46;70.23;99824.34;4178212;28;20449;-62
2022/09/15 09:42:47;;;;;;;8.35;3.70;;;;;;;17.49;70.65;99831.31;4180911;28;20047;-63
2022/09/15 09:44:49;;;;;;;7.63;3.42;;;;;;;17.42;71.53;99828.84;4173053;28;20080;-63
2022/09/15 09:46:52;;;;;;;7.35;3.13;;;;;;;17.36;72.58;99821.09;4180518;28;20041;-63
2022/09/15 09:49:01;;;;;;;6.38;3.13;;;;;;;17.47;72.24;99825.22;4181614;28;20387;-63
2022/09/15 09:51:04;;;;;;;8.13;3.70;;;;;;;17.56;72.28;99820.59;4178166;28;20049;-63